createdAt,value
2019-01-31T00:00:05.210Z,52.30
2019-01-31T00:01:05.218Z,49.00
2019-01-31T00:02:05.243Z,53.20
2019-01-31T00:03:05.208Z,50.30
2019-01-31T00:04:05.247Z,51.30
2019-01-31T00:05:05.165Z,48.20
2019-01-31T00:06:05.149Z,49.00
2019-01-31T00:07:05.159Z,50.60
2019-01-31T00:08:05.191Z,53.10
2019-01-31T00:09:05.167Z,49.70
2019-01-31T00:10:05.167Z,49.40
2019-01-31T00:11:05.087Z,49.30
2019-01-31T00:12:05.104Z,51.40
2019-01-31T00:13:05.097Z,55.00
2019-01-31T00:14:05.096Z,50.40
2019-01-31T00:15:05.088Z,51.00
2019-01-31T00:16:05.049Z,53.40
2019-01-31T00:17:05.096Z,55.10
2019-01-31T00:19:06.083Z,47.20
2019-01-31T00:20:05.044Z,54.50
2019-01-31T00:21:04.981Z,53.00
2019-01-31T00:23:06.054Z,49.70
2019-01-31T00:24:04.967Z,52.60
2019-01-31T00:25:05.002Z,50.90
2019-01-31T00:26:04.975Z,51.20
2019-01-31T00:27:05.006Z,52.20
2019-01-31T00:28:06.970Z,52.90
2019-01-31T00:30:06.032Z,49.30
2019-01-31T00:31:04.898Z,52.90
2019-01-31T00:32:04.873Z,53.60
2019-01-31T00:33:04.874Z,49.00
2019-01-31T00:34:04.865Z,53.70
2019-01-31T00:35:04.883Z,55.20
2019-01-31T00:36:04.871Z,50.90
2019-01-31T00:37:04.835Z,52.50
2019-01-31T00:38:04.817Z,50.00
2019-01-31T00:39:04.847Z,52.20
2019-01-31T00:40:04.804Z,50.70
2019-01-31T00:42:05.866Z,50.60
2019-01-31T00:43:04.774Z,51.20
2019-01-31T00:44:04.755Z,54.40
2019-01-31T00:45:04.779Z,50.80
2019-01-31T00:46:04.738Z,51.30
2019-01-31T00:48:05.782Z,50.60
2019-01-31T00:49:25.705Z,51.90
2019-01-31T00:50:04.745Z,50.50
2019-01-31T00:51:04.662Z,53.40
2019-01-31T00:53:26.675Z,47.90
2019-01-31T00:54:04.650Z,51.60
2019-01-31T00:55:04.649Z,52.10
2019-01-31T00:56:25.656Z,54.60
2019-01-31T00:57:04.617Z,52.00
2019-01-31T00:58:04.612Z,50.90
2019-01-31T00:59:04.604Z,48.10
2019-01-31T01:00:04.592Z,48.30
2019-01-31T01:01:04.613Z,46.80
2019-01-31T01:02:04.560Z,49.30
2019-01-31T01:03:04.549Z,48.00
2019-01-31T01:05:05.604Z,50.50
2019-01-31T01:06:04.619Z,50.80
2019-01-31T01:07:04.589Z,49.20
2019-01-31T01:08:04.586Z,48.40
2019-01-31T01:09:07.849Z,50.20
2019-01-31T01:10:04.565Z,54.80
2019-01-31T01:11:04.502Z,52.10
2019-01-31T01:12:04.739Z,46.80
2019-01-31T01:13:04.486Z,50.10
2019-01-31T01:14:04.434Z,50.50
2019-01-31T01:15:04.427Z,49.90
2019-01-31T01:16:04.446Z,49.40
2019-01-31T01:17:04.414Z,48.30
2019-01-31T01:18:04.414Z,44.90
2019-01-31T01:19:04.402Z,49.30
2019-01-31T01:20:04.378Z,47.70
2019-01-31T01:21:04.522Z,49.90
2019-01-31T01:22:04.366Z,49.60
2019-01-31T01:23:04.352Z,49.00
2019-01-31T01:24:04.365Z,48.60
2019-01-31T01:25:04.368Z,47.40
2019-01-31T01:26:04.358Z,49.50
2019-01-31T01:27:04.327Z,49.40
2019-01-31T01:28:04.325Z,47.90
2019-01-31T01:29:04.332Z,45.70
2019-01-31T01:30:04.296Z,49.10
2019-01-31T01:31:04.314Z,50.40
2019-01-31T01:32:04.248Z,50.20
2019-01-31T01:33:04.242Z,50.00
2019-01-31T01:34:04.247Z,46.40
2019-01-31T01:35:04.240Z,51.10
2019-01-31T01:36:04.249Z,48.70
2019-01-31T01:37:04.192Z,47.70
2019-01-31T01:38:04.183Z,50.30
2019-01-31T01:39:04.176Z,44.50
2019-01-31T01:40:04.170Z,48.00
2019-01-31T01:41:04.178Z,47.70
2019-01-31T01:42:04.175Z,45.70
2019-01-31T01:43:04.134Z,49.70
2019-01-31T01:44:04.137Z,44.10
2019-01-31T01:45:04.118Z,49.00
2019-01-31T01:46:04.108Z,51.20
2019-01-31T01:47:04.146Z,46.70
2019-01-31T01:48:04.095Z,51.60
2019-01-31T01:49:04.068Z,49.00
2019-01-31T01:50:04.069Z,45.10
2019-01-31T01:51:04.060Z,48.90
2019-01-31T01:52:04.076Z,46.50
2019-01-31T01:53:04.066Z,49.50
2019-01-31T01:54:04.054Z,56.90
2019-01-31T01:55:04.004Z,49.60
2019-01-31T01:56:04.022Z,51.80
2019-01-31T01:57:04.074Z,48.80
2019-01-31T01:58:04.073Z,50.00
2019-01-31T01:59:04.009Z,44.00
2019-01-31T02:00:04.032Z,48.30
2019-01-31T02:02:05.048Z,45.20
2019-01-31T02:03:06.050Z,46.60
2019-01-31T02:04:03.933Z,46.40
2019-01-31T02:06:04.972Z,45.60
2019-01-31T02:07:03.974Z,46.20
2019-01-31T02:08:03.985Z,45.50
2019-01-31T02:09:03.945Z,44.30
2019-01-31T02:10:05.888Z,45.60
2019-01-31T02:11:03.898Z,48.20
2019-01-31T02:14:05.029Z,43.60
2019-01-31T02:15:03.905Z,45.10
2019-01-31T02:16:03.896Z,47.40
2019-01-31T02:17:03.812Z,44.90
2019-01-31T02:18:06.495Z,47.80
2019-01-31T02:20:04.852Z,46.50
2019-01-31T02:21:03.770Z,46.80
2019-01-31T02:22:03.742Z,46.90
2019-01-31T02:23:05.872Z,47.70
2019-01-31T02:24:03.777Z,47.70
2019-01-31T02:27:04.769Z,45.60
2019-01-31T02:28:10.566Z,44.10
2019-01-31T02:29:03.686Z,44.00
2019-01-31T02:30:07.728Z,43.90
2019-01-31T02:31:05.666Z,41.80
2019-01-31T02:32:03.627Z,46.50
2019-01-31T02:34:04.672Z,45.70
2019-01-31T02:35:05.680Z,45.30
2019-01-31T02:36:05.128Z,43.00
2019-01-31T02:37:03.594Z,41.50
2019-01-31T02:38:09.100Z,39.60
2019-01-31T02:39:06.614Z,43.20
2019-01-31T02:40:03.556Z,45.10
2019-01-31T02:41:03.558Z,44.80
2019-01-31T02:43:04.611Z,41.70
2019-01-31T02:44:03.516Z,43.50
2019-01-31T02:45:03.538Z,41.10
2019-01-31T02:46:05.496Z,43.50
2019-01-31T02:47:04.459Z,45.40
2019-01-31T02:48:03.535Z,44.50
2019-01-31T02:49:05.482Z,42.10
2019-01-31T02:51:04.490Z,42.50
2019-01-31T02:53:04.400Z,42.30
2019-01-31T02:55:04.522Z,40.80
2019-01-31T02:57:04.613Z,43.20
2019-01-31T02:58:29.022Z,41.80
2019-01-31T02:59:03.362Z,42.30
2019-01-31T03:00:03.379Z,42.60
2019-01-31T03:02:04.417Z,42.70
2019-01-31T03:05:16.066Z,46.90
2019-01-31T03:06:12.872Z,51.10
2019-01-31T03:08:13.906Z,56.90
2019-01-31T03:09:12.882Z,57.20
2019-01-31T03:10:12.854Z,45.10
2019-01-31T03:11:12.898Z,45.40
2019-01-31T03:14:13.840Z,41.00
2019-01-31T03:15:12.854Z,40.20
2019-01-31T03:16:12.726Z,42.70
2019-01-31T03:17:33.733Z,44.10
2019-01-31T03:18:12.729Z,41.00
2019-01-31T03:19:12.734Z,45.50
2019-01-31T03:20:12.676Z,42.50
2019-01-31T03:21:12.693Z,40.00
2019-01-31T03:22:14.712Z,41.40
2019-01-31T03:23:14.707Z,43.50
2019-01-31T03:24:13.731Z,39.80
2019-01-31T03:25:12.645Z,38.70
2019-01-31T03:26:12.606Z,40.50
2019-01-31T03:27:12.602Z,39.60
2019-01-31T03:28:14.648Z,40.70
2019-01-31T03:29:12.600Z,40.20
2019-01-31T03:30:12.591Z,40.20
2019-01-31T03:31:12.619Z,43.40
2019-01-31T03:32:12.564Z,40.60
2019-01-31T03:33:12.540Z,39.50
2019-01-31T03:34:12.554Z,41.20
2019-01-31T03:35:12.558Z,40.50
2019-01-31T03:36:12.550Z,39.80
2019-01-31T03:37:12.542Z,39.10
2019-01-31T03:38:12.482Z,39.70
2019-01-31T03:39:12.503Z,42.50
2019-01-31T03:40:12.483Z,40.70
2019-01-31T03:41:12.457Z,40.90
2019-01-31T03:42:12.486Z,40.60
2019-01-31T03:43:12.432Z,39.50
2019-01-31T03:44:12.469Z,39.30
2019-01-31T03:45:12.424Z,38.60
2019-01-31T03:46:12.416Z,40.20
2019-01-31T03:47:12.434Z,39.80
2019-01-31T03:48:12.373Z,41.20
2019-01-31T03:49:12.406Z,40.70
2019-01-31T03:50:14.391Z,42.10
2019-01-31T03:51:12.405Z,42.30
2019-01-31T03:54:13.410Z,41.70
2019-01-31T03:55:33.304Z,38.50
2019-01-31T03:56:12.301Z,38.80
2019-01-31T03:57:12.291Z,40.80
2019-01-31T03:59:14.888Z,39.50
2019-01-31T04:00:33.294Z,42.00
2019-01-31T04:01:12.281Z,42.50
2019-01-31T04:02:12.248Z,38.60
2019-01-31T04:03:14.275Z,38.60
2019-01-31T04:04:12.328Z,39.20
2019-01-31T04:05:12.234Z,39.90
2019-01-31T04:06:12.189Z,40.30
2019-01-31T04:07:12.276Z,40.70
2019-01-31T04:08:14.178Z,40.00
2019-01-31T04:09:12.182Z,37.30
2019-01-31T04:12:34.212Z,37.20
2019-01-31T04:13:12.122Z,38.40
2019-01-31T04:15:13.172Z,38.40
2019-01-31T04:16:12.152Z,42.20
2019-01-31T04:17:12.176Z,36.60
2019-01-31T04:18:33.162Z,40.30
2019-01-31T04:19:12.102Z,39.20
2019-01-31T04:20:12.156Z,39.20
2019-01-31T04:21:33.080Z,43.00
2019-01-31T04:22:15.026Z,47.50
2019-01-31T04:23:12.026Z,39.70
2019-01-31T04:24:12.068Z,38.30
2019-01-31T04:25:12.149Z,39.10
2019-01-31T04:27:13.214Z,37.50
2019-01-31T04:28:11.991Z,39.10
2019-01-31T04:30:13.193Z,37.10
2019-01-31T04:31:11.922Z,40.20
2019-01-31T04:32:11.921Z,38.10
2019-01-31T04:33:11.939Z,37.70
2019-01-31T04:36:12.958Z,38.20
2019-01-31T04:37:11.944Z,36.50
2019-01-31T04:38:20.162Z,37.00
2019-01-31T04:39:11.873Z,35.60
2019-01-31T04:40:15.032Z,37.90
2019-01-31T04:41:13.918Z,35.40
2019-01-31T04:42:11.833Z,36.00
2019-01-31T04:43:12.807Z,37.60
2019-01-31T04:44:11.793Z,36.70
2019-01-31T04:45:11.780Z,36.10
2019-01-31T04:46:13.324Z,36.40
2019-01-31T04:47:11.775Z,38.40
2019-01-31T04:48:11.737Z,36.70
2019-01-31T04:49:11.760Z,36.70
2019-01-31T04:50:11.746Z,36.40
2019-01-31T04:52:12.764Z,36.40
2019-01-31T04:53:11.734Z,36.60
2019-01-31T04:54:11.702Z,36.60
2019-01-31T04:56:12.840Z,37.70
2019-01-31T04:57:12.000Z,37.00
2019-01-31T04:58:11.714Z,36.40
2019-01-31T04:59:13.715Z,34.80
2019-01-31T05:00:11.638Z,38.20
2019-01-31T05:01:11.718Z,36.00
2019-01-31T05:02:11.597Z,35.00
2019-01-31T05:03:28.131Z,37.60
2019-01-31T05:04:11.578Z,38.70
2019-01-31T05:06:12.784Z,38.20
2019-01-31T05:07:11.610Z,38.40
2019-01-31T05:08:11.541Z,36.40
2019-01-31T05:09:11.547Z,34.80
2019-01-31T05:10:11.511Z,35.00
2019-01-31T05:12:12.734Z,33.60
2019-01-31T05:13:13.535Z,35.90
2019-01-31T05:14:11.473Z,35.70
2019-01-31T05:15:11.492Z,37.10
2019-01-31T05:16:11.525Z,35.90
2019-01-31T05:17:11.549Z,33.90
2019-01-31T05:18:11.525Z,35.00
2019-01-31T05:19:13.457Z,34.10
2019-01-31T05:20:11.556Z,37.90
2019-01-31T05:21:15.415Z,39.00
2019-01-31T05:22:13.382Z,36.10
2019-01-31T05:24:12.520Z,34.70
2019-01-31T05:25:11.370Z,36.10
2019-01-31T05:26:11.356Z,35.00
2019-01-31T05:27:11.361Z,34.10
2019-01-31T05:28:11.338Z,34.40
2019-01-31T05:29:11.365Z,32.10
2019-01-31T05:30:11.323Z,36.00
2019-01-31T05:32:13.811Z,35.40
2019-01-31T05:33:32.323Z,35.60
2019-01-31T05:34:34.262Z,33.60
2019-01-31T05:35:11.264Z,36.00
2019-01-31T05:36:11.258Z,35.20
2019-01-31T05:37:11.316Z,33.90
2019-01-31T05:38:11.258Z,34.60
2019-01-31T05:40:12.261Z,35.80
2019-01-31T05:41:32.195Z,37.10
2019-01-31T05:42:11.234Z,34.50
2019-01-31T05:43:11.179Z,33.40
2019-01-31T05:46:12.227Z,32.20
2019-01-31T05:49:32.705Z,35.80
2019-01-31T05:50:31.688Z,37.20
2019-01-31T05:51:31.681Z,33.40
2019-01-31T05:52:31.687Z,33.10
2019-01-31T05:55:32.634Z,32.20
2019-01-31T05:56:31.625Z,36.40
2019-01-31T05:57:31.651Z,31.10
2019-01-31T05:58:31.633Z,33.80
2019-01-31T05:59:31.602Z,35.80
2019-01-31T06:00:31.606Z,32.40
2019-01-31T06:01:31.573Z,37.90
2019-01-31T06:02:31.600Z,34.50
2019-01-31T06:03:31.567Z,35.90
2019-01-31T06:04:31.555Z,31.60
2019-01-31T06:05:31.534Z,36.30
2019-01-31T06:06:31.612Z,33.90
2019-01-31T06:07:33.236Z,30.20
2019-01-31T06:08:31.553Z,34.90
2019-01-31T06:09:31.506Z,32.00
2019-01-31T06:10:33.657Z,34.90
2019-01-31T06:11:31.475Z,33.30
2019-01-31T06:12:31.496Z,32.70
2019-01-31T06:13:31.458Z,32.60
2019-01-31T06:14:31.443Z,31.50
2019-01-31T06:15:31.518Z,32.50
2019-01-31T06:16:31.461Z,37.50
2019-01-31T06:17:31.462Z,34.10
2019-01-31T06:18:31.409Z,32.50
2019-01-31T06:19:31.391Z,34.40
2019-01-31T06:20:31.391Z,36.10
2019-01-31T06:21:31.413Z,31.20
2019-01-31T06:22:31.387Z,33.80
2019-01-31T06:23:31.498Z,32.40
2019-01-31T06:24:31.362Z,31.90
2019-01-31T06:25:31.363Z,34.00
2019-01-31T06:26:31.320Z,35.00
2019-01-31T06:27:31.322Z,34.80
2019-01-31T06:28:31.335Z,31.60
2019-01-31T06:29:31.304Z,30.40
2019-01-31T06:30:31.287Z,30.70
2019-01-31T06:31:31.277Z,36.10
2019-01-31T06:32:31.258Z,32.50
2019-01-31T06:33:31.278Z,34.40
2019-01-31T06:34:31.236Z,33.80
2019-01-31T06:35:31.232Z,30.90
2019-01-31T06:36:31.227Z,32.10
2019-01-31T06:37:31.264Z,33.80
2019-01-31T06:38:31.218Z,33.70
2019-01-31T06:39:31.218Z,30.00
2019-01-31T06:40:31.168Z,31.50
2019-01-31T06:41:31.177Z,32.10
2019-01-31T06:42:31.168Z,34.70
2019-01-31T06:43:31.173Z,31.90
2019-01-31T06:44:31.137Z,33.00
2019-01-31T06:45:31.123Z,34.90
2019-01-31T06:46:31.108Z,29.70
2019-01-31T06:47:31.105Z,32.20
2019-01-31T06:48:33.890Z,31.90
2019-01-31T06:49:31.085Z,31.70
2019-01-31T06:51:32.135Z,32.30
2019-01-31T06:52:52.091Z,31.50
2019-01-31T06:53:52.051Z,33.80
2019-01-31T06:54:31.113Z,33.30
2019-01-31T06:55:31.099Z,32.30
2019-01-31T06:57:32.103Z,32.80
2019-01-31T06:58:31.029Z,33.40
2019-01-31T06:59:30.977Z,32.20
2019-01-31T07:00:30.957Z,30.20
2019-01-31T07:01:30.959Z,31.50
2019-01-31T07:03:32.030Z,31.80
2019-01-31T07:04:30.919Z,33.30
2019-01-31T07:05:30.907Z,32.90
2019-01-31T07:06:30.896Z,31.50
2019-01-31T07:07:30.895Z,31.70
2019-01-31T07:09:31.960Z,32.70
2019-01-31T07:10:30.915Z,32.40
2019-01-31T07:11:30.911Z,29.90
2019-01-31T07:12:30.925Z,31.00
2019-01-31T07:13:33.734Z,32.80
2019-01-31T07:14:30.912Z,30.50
2019-01-31T07:15:30.821Z,31.50
2019-01-31T07:16:30.801Z,29.50
2019-01-31T07:17:30.813Z,31.40
2019-01-31T07:18:30.763Z,30.70
2019-01-31T07:19:30.828Z,31.50
2019-01-31T07:20:30.770Z,32.50
2019-01-31T07:21:30.737Z,32.00
2019-01-31T07:22:30.742Z,32.20
2019-01-31T07:23:30.719Z,31.90
2019-01-31T07:24:30.727Z,30.00
2019-01-31T07:25:30.700Z,29.60
2019-01-31T07:26:30.694Z,33.90
2019-01-31T07:27:30.714Z,33.30
2019-01-31T07:28:30.720Z,29.20
2019-01-31T07:29:30.732Z,29.60
2019-01-31T07:30:30.663Z,32.50
2019-01-31T07:31:30.639Z,29.70
2019-01-31T07:32:30.643Z,29.50
2019-01-31T07:33:30.613Z,32.60
2019-01-31T07:34:30.629Z,31.60
2019-01-31T07:35:30.607Z,29.90
2019-01-31T07:36:30.571Z,32.80
2019-01-31T07:37:30.575Z,31.10
2019-01-31T07:38:30.575Z,32.60
2019-01-31T07:39:30.588Z,32.10
2019-01-31T07:40:30.533Z,30.10
2019-01-31T07:41:40.683Z,31.60
2019-01-31T07:42:31.522Z,30.90
2019-01-31T07:43:30.512Z,32.90
2019-01-31T07:44:30.525Z,33.60
2019-01-31T07:45:30.535Z,29.40
2019-01-31T07:46:30.465Z,28.80
2019-01-31T07:47:30.473Z,36.00
2019-01-31T07:48:30.450Z,32.90
2019-01-31T07:49:30.449Z,34.90
2019-01-31T07:50:30.476Z,31.40
2019-01-31T07:51:30.429Z,31.30
2019-01-31T07:52:30.406Z,31.70
2019-01-31T07:53:30.401Z,31.90
2019-01-31T07:54:30.413Z,30.60
2019-01-31T07:55:30.421Z,32.40
2019-01-31T07:56:30.369Z,32.70
2019-01-31T07:57:30.397Z,32.00
2019-01-31T07:58:30.354Z,33.50
2019-01-31T07:59:30.352Z,30.60
2019-01-31T08:00:30.352Z,32.00
2019-01-31T08:01:30.332Z,32.80
2019-01-31T08:02:30.476Z,31.60
2019-01-31T08:03:30.285Z,31.20
2019-01-31T08:04:30.281Z,31.40
2019-01-31T08:05:30.343Z,31.60
2019-01-31T08:06:30.284Z,32.30
2019-01-31T08:07:30.267Z,32.70
2019-01-31T08:08:30.316Z,30.80
2019-01-31T08:09:30.227Z,32.10
2019-01-31T08:10:30.291Z,32.30
2019-01-31T08:11:30.213Z,31.90
2019-01-31T08:12:30.239Z,31.70
2019-01-31T08:13:30.210Z,31.20
2019-01-31T08:14:30.199Z,30.20
2019-01-31T08:15:30.212Z,32.70
2019-01-31T08:16:30.160Z,32.70
2019-01-31T08:17:30.224Z,35.40
2019-01-31T08:18:30.148Z,32.00
2019-01-31T08:19:30.154Z,30.80
2019-01-31T08:20:30.147Z,33.30
2019-01-31T08:21:30.105Z,31.40
2019-01-31T08:22:30.095Z,31.90
2019-01-31T08:23:30.092Z,31.20
2019-01-31T08:24:30.075Z,29.80
2019-01-31T08:25:30.095Z,30.40
2019-01-31T08:26:30.094Z,28.40
2019-01-31T08:27:30.069Z,31.00
2019-01-31T08:28:30.024Z,32.20
2019-01-31T08:29:30.008Z,32.80
2019-01-31T08:30:30.011Z,31.90
2019-01-31T08:31:30.026Z,31.70
2019-01-31T08:32:29.983Z,31.00
2019-01-31T08:33:29.978Z,30.50
2019-01-31T08:34:29.980Z,28.60
2019-01-31T08:35:29.951Z,29.10
2019-01-31T08:36:29.972Z,29.00
2019-01-31T08:37:29.928Z,31.50
2019-01-31T08:38:29.927Z,26.90
2019-01-31T08:39:29.920Z,31.90
2019-01-31T08:40:29.910Z,31.60
2019-01-31T08:41:29.906Z,31.80
2019-01-31T08:42:29.939Z,31.80
2019-01-31T08:43:29.864Z,30.10
2019-01-31T08:44:29.863Z,30.30
2019-01-31T08:45:29.844Z,30.70
2019-01-31T08:46:29.866Z,28.40
2019-01-31T08:47:29.826Z,31.20
2019-01-31T08:48:29.830Z,30.30
2019-01-31T08:49:29.835Z,33.10
2019-01-31T08:50:29.792Z,29.70
2019-01-31T08:51:29.802Z,30.20
2019-01-31T08:52:29.764Z,32.40
2019-01-31T08:53:29.768Z,28.90
2019-01-31T08:55:30.737Z,30.50
2019-01-31T08:56:29.753Z,30.20
2019-01-31T08:57:29.725Z,29.00
2019-01-31T08:58:29.710Z,29.50
2019-01-31T08:59:29.698Z,28.50
2019-01-31T09:00:29.724Z,30.90
2019-01-31T09:01:29.718Z,33.20
2019-01-31T09:02:29.669Z,30.90
2019-01-31T09:03:29.656Z,33.30
2019-01-31T09:04:29.641Z,36.10
2019-01-31T09:05:29.646Z,30.40
2019-01-31T09:06:29.643Z,29.50
2019-01-31T09:07:29.662Z,29.20
2019-01-31T09:08:29.597Z,30.60
2019-01-31T09:09:29.592Z,28.80
2019-01-31T09:10:29.585Z,30.10
2019-01-31T09:11:29.582Z,33.90
2019-01-31T09:12:29.605Z,29.40
2019-01-31T09:13:29.546Z,29.50
2019-01-31T09:14:29.539Z,29.40
2019-01-31T09:15:29.534Z,30.40
2019-01-31T09:16:29.531Z,31.70
2019-01-31T09:17:29.530Z,31.20
2019-01-31T09:18:29.524Z,26.30
2019-01-31T09:19:29.486Z,28.90
2019-01-31T09:20:29.472Z,33.50
2019-01-31T09:21:29.470Z,29.60
2019-01-31T09:22:29.482Z,31.90
2019-01-31T09:23:29.460Z,28.70
2019-01-31T09:24:29.463Z,27.40
2019-01-31T09:25:29.416Z,29.30
2019-01-31T09:26:29.416Z,26.10
2019-01-31T09:27:29.460Z,28.60
2019-01-31T09:28:29.407Z,27.80
2019-01-31T09:29:29.462Z,30.20
2019-01-31T09:30:29.396Z,28.70
2019-01-31T09:31:29.387Z,29.20
2019-01-31T09:32:29.374Z,29.00
2019-01-31T09:33:29.340Z,28.20
2019-01-31T09:34:29.362Z,30.00
2019-01-31T09:35:29.347Z,27.40
2019-01-31T09:36:29.317Z,29.50
2019-01-31T09:37:29.316Z,28.40
2019-01-31T09:38:29.306Z,28.50
2019-01-31T09:39:29.274Z,29.10
2019-01-31T09:40:29.286Z,30.00
2019-01-31T09:41:29.250Z,27.90
2019-01-31T09:42:29.288Z,30.10
2019-01-31T09:43:29.240Z,28.90
2019-01-31T09:44:29.266Z,31.80
2019-01-31T09:45:29.226Z,27.00
2019-01-31T09:46:29.227Z,28.70
2019-01-31T09:47:31.684Z,27.50
2019-01-31T09:48:29.197Z,29.20
2019-01-31T09:49:29.193Z,29.30
2019-01-31T09:50:29.154Z,31.40
2019-01-31T09:51:29.162Z,29.50
2019-01-31T09:52:29.164Z,30.60
2019-01-31T09:53:29.171Z,29.80
2019-01-31T09:54:29.118Z,29.70
2019-01-31T09:55:29.103Z,26.80
2019-01-31T09:56:29.094Z,26.00
2019-01-31T09:57:29.096Z,26.70
2019-01-31T09:58:29.096Z,27.30
2019-01-31T09:59:29.068Z,27.00
2019-01-31T10:00:29.048Z,29.40
2019-01-31T10:01:29.058Z,28.70
2019-01-31T10:02:29.027Z,28.40
2019-01-31T10:03:29.043Z,26.50
2019-01-31T10:04:29.036Z,27.20
2019-01-31T10:05:28.994Z,28.00
2019-01-31T10:06:28.988Z,30.50
2019-01-31T10:07:28.978Z,26.50
2019-01-31T10:08:28.977Z,27.80
2019-01-31T10:09:28.965Z,27.40
2019-01-31T10:10:28.982Z,29.90
2019-01-31T10:11:28.999Z,28.60
2019-01-31T10:12:37.902Z,29.20
2019-01-31T10:13:29.993Z,26.60
2019-01-31T10:14:28.993Z,25.40
2019-01-31T10:15:28.909Z,27.40
2019-01-31T10:16:28.915Z,25.70
2019-01-31T10:17:28.897Z,24.10
2019-01-31T10:18:28.925Z,27.90
2019-01-31T10:19:28.932Z,24.60
2019-01-31T10:20:28.880Z,24.70
2019-01-31T10:21:28.853Z,22.70
2019-01-31T10:22:28.842Z,23.50
2019-01-31T10:23:28.926Z,21.70
2019-01-31T10:24:28.800Z,22.00
2019-01-31T10:26:29.841Z,21.50
2019-01-31T10:28:50.814Z,22.90
2019-01-31T10:29:28.745Z,23.70
2019-01-31T10:30:28.745Z,24.60
2019-01-31T10:31:28.721Z,21.20
2019-01-31T10:32:28.727Z,22.40
2019-01-31T10:33:28.718Z,22.10
2019-01-31T10:34:28.724Z,22.60
2019-01-31T10:35:28.682Z,23.50
2019-01-31T10:36:28.674Z,20.80
2019-01-31T10:37:28.664Z,19.60
2019-01-31T10:38:28.682Z,22.10
2019-01-31T10:39:28.672Z,20.70
2019-01-31T10:40:28.632Z,19.90
2019-01-31T10:41:28.623Z,20.10
2019-01-31T10:42:28.605Z,19.90
2019-01-31T10:43:28.606Z,20.30
2019-01-31T10:44:28.616Z,20.90
2019-01-31T10:45:28.594Z,19.90
2019-01-31T10:46:28.552Z,20.40
2019-01-31T10:47:28.550Z,22.50
2019-01-31T10:48:28.550Z,20.10
2019-01-31T10:49:28.586Z,20.60
2019-01-31T10:50:28.544Z,21.30
2019-01-31T10:51:28.552Z,21.60
2019-01-31T10:52:28.503Z,20.70
2019-01-31T10:53:28.504Z,20.20
2019-01-31T10:54:28.499Z,17.20
2019-01-31T10:55:28.473Z,17.90
2019-01-31T10:56:28.591Z,17.90
2019-01-31T10:57:28.440Z,17.50
2019-01-31T10:58:28.445Z,19.30
2019-01-31T10:59:28.494Z,23.00
2019-01-31T11:00:28.416Z,19.70
2019-01-31T11:01:28.403Z,20.80
2019-01-31T11:02:28.443Z,21.20
2019-01-31T11:03:28.383Z,17.20
2019-01-31T11:04:28.418Z,17.90
2019-01-31T11:05:28.377Z,17.60
2019-01-31T11:06:28.362Z,16.20
2019-01-31T11:07:28.348Z,16.70
2019-01-31T11:08:28.352Z,17.90
2019-01-31T11:09:28.363Z,17.30
2019-01-31T11:10:28.305Z,16.60
2019-01-31T11:11:28.305Z,17.20
2019-01-31T11:12:28.295Z,17.90
2019-01-31T11:13:28.294Z,18.80
2019-01-31T11:14:28.306Z,19.30
2019-01-31T11:15:28.257Z,16.20
2019-01-31T11:16:28.243Z,19.80
2019-01-31T11:17:28.348Z,20.20
2019-01-31T11:18:28.230Z,19.30
2019-01-31T11:19:28.231Z,19.80
2019-01-31T11:20:28.233Z,18.20
2019-01-31T11:21:28.179Z,19.30
2019-01-31T11:22:28.206Z,18.30
2019-01-31T11:23:28.172Z,18.50
2019-01-31T11:24:28.176Z,15.90
2019-01-31T11:25:28.192Z,16.20
2019-01-31T11:26:28.170Z,18.40
2019-01-31T11:27:28.123Z,17.80
2019-01-31T11:28:28.119Z,16.40
2019-01-31T11:29:28.110Z,16.00
2019-01-31T11:30:28.122Z,18.10
2019-01-31T11:31:28.109Z,16.40
2019-01-31T11:32:28.062Z,17.70
2019-01-31T11:33:28.071Z,15.90
2019-01-31T11:34:32.995Z,19.40
2019-01-31T11:35:29.333Z,18.70
2019-01-31T11:36:28.037Z,16.20
2019-01-31T11:37:28.046Z,15.30
2019-01-31T11:38:28.005Z,17.80
2019-01-31T11:39:28.017Z,15.40
2019-01-31T11:40:28.008Z,16.30
2019-01-31T11:41:27.985Z,15.30
2019-01-31T11:42:27.964Z,15.70
2019-01-31T11:43:27.959Z,15.20
2019-01-31T11:44:27.946Z,13.90
2019-01-31T11:45:27.974Z,13.00
2019-01-31T11:46:27.920Z,15.40
2019-01-31T11:47:27.918Z,14.10
2019-01-31T11:48:27.918Z,15.40
2019-01-31T11:49:27.880Z,14.70
2019-01-31T11:50:27.915Z,14.70
2019-01-31T11:51:27.862Z,12.90
2019-01-31T11:52:27.873Z,13.00
2019-01-31T11:53:27.858Z,13.10
2019-01-31T11:54:27.853Z,12.70
2019-01-31T11:55:27.864Z,12.90
2019-01-31T11:56:27.823Z,13.00
2019-01-31T11:57:27.799Z,13.40
2019-01-31T11:58:27.810Z,19.50
2019-01-31T11:59:27.772Z,13.50
2019-01-31T12:00:27.776Z,13.80
2019-01-31T12:01:27.783Z,13.10
2019-01-31T12:02:27.755Z,13.30
2019-01-31T12:03:27.735Z,12.40
2019-01-31T12:04:27.733Z,14.40
2019-01-31T12:05:27.738Z,14.70
2019-01-31T12:06:27.802Z,12.40
2019-01-31T12:07:27.691Z,12.90
2019-01-31T12:08:27.808Z,12.50
2019-01-31T12:09:27.671Z,12.30
2019-01-31T12:10:27.669Z,13.50
2019-01-31T12:11:27.684Z,16.40
2019-01-31T12:12:27.645Z,30.70
2019-01-31T12:13:27.658Z,11.90
2019-01-31T12:14:27.615Z,11.50
2019-01-31T12:15:27.632Z,11.00
2019-01-31T12:16:27.789Z,11.10
2019-01-31T12:17:27.594Z,11.00
2019-01-31T12:18:27.585Z,12.50
2019-01-31T12:19:27.596Z,13.20
2019-01-31T12:20:27.553Z,13.80
2019-01-31T12:21:27.562Z,12.60
2019-01-31T12:22:27.546Z,12.20
2019-01-31T12:23:27.525Z,13.00
2019-01-31T12:24:27.506Z,12.90
2019-01-31T12:25:27.499Z,14.20
2019-01-31T12:26:27.520Z,11.90
2019-01-31T12:27:27.486Z,13.30
2019-01-31T12:28:27.466Z,12.10
2019-01-31T12:29:27.467Z,12.60
2019-01-31T12:30:27.445Z,16.90
2019-01-31T12:31:27.477Z,13.50
2019-01-31T12:32:27.427Z,14.30
2019-01-31T12:33:27.428Z,19.10
2019-01-31T12:34:27.413Z,16.20
2019-01-31T12:35:27.399Z,11.90
2019-01-31T12:36:27.399Z,12.70
2019-01-31T12:37:27.378Z,14.80
2019-01-31T12:38:36.554Z,14.50
2019-01-31T12:39:28.351Z,12.00
2019-01-31T12:40:27.333Z,13.50
2019-01-31T12:41:27.348Z,10.30
2019-01-31T12:42:27.317Z,10.70
2019-01-31T12:43:34.768Z,11.20
2019-01-31T12:44:28.289Z,9.30
2019-01-31T12:45:27.278Z,11.00
2019-01-31T12:46:27.309Z,10.60
2019-01-31T12:47:27.259Z,10.40
2019-01-31T12:48:27.251Z,10.30
2019-01-31T12:49:27.303Z,10.50
2019-01-31T12:50:27.242Z,9.30
2019-01-31T12:51:27.267Z,10.20
2019-01-31T12:52:27.211Z,9.10
2019-01-31T12:53:27.208Z,9.00
2019-01-31T12:54:27.184Z,9.60
2019-01-31T12:55:27.180Z,9.70
2019-01-31T12:56:27.179Z,9.50
2019-01-31T12:57:27.189Z,10.70
2019-01-31T12:58:33.726Z,11.40
2019-01-31T12:59:28.147Z,10.10
2019-01-31T13:00:27.127Z,9.00
2019-01-31T13:01:27.114Z,10.20
2019-01-31T13:02:27.136Z,9.30
2019-01-31T13:03:27.121Z,8.50
2019-01-31T13:04:27.077Z,9.50
2019-01-31T13:05:27.090Z,10.40
2019-01-31T13:06:27.063Z,9.90
2019-01-31T13:07:27.105Z,9.80
2019-01-31T13:08:27.182Z,10.30
2019-01-31T13:09:28.340Z,10.50
2019-01-31T13:10:27.011Z,10.60
2019-01-31T13:11:27.040Z,9.70
2019-01-31T13:12:27.011Z,9.70
2019-01-31T13:13:27.005Z,8.60
2019-01-31T13:14:28.504Z,10.60
2019-01-31T13:15:29.355Z,8.50
2019-01-31T13:16:26.953Z,8.00
2019-01-31T13:17:26.982Z,8.10
2019-01-31T13:18:26.947Z,10.40
2019-01-31T13:19:26.913Z,9.30
2019-01-31T13:20:26.919Z,9.50
2019-01-31T13:21:26.901Z,8.60
2019-01-31T13:22:26.915Z,8.80
2019-01-31T13:23:26.881Z,9.70
2019-01-31T13:24:26.882Z,9.30
2019-01-31T13:25:26.851Z,8.90
2019-01-31T13:26:27.168Z,9.80
2019-01-31T13:27:26.843Z,11.10
2019-01-31T13:28:26.849Z,8.70
2019-01-31T13:29:26.817Z,8.30
2019-01-31T13:30:26.823Z,6.80
2019-01-31T13:31:26.787Z,8.40
2019-01-31T13:32:26.796Z,8.60
2019-01-31T13:33:26.796Z,7.80
2019-01-31T13:34:26.750Z,10.30
2019-01-31T13:35:26.747Z,10.90
2019-01-31T13:36:26.761Z,8.50
2019-01-31T13:37:26.718Z,8.70
2019-01-31T13:38:27.014Z,8.80
2019-01-31T13:39:26.993Z,10.00
2019-01-31T13:40:26.691Z,8.10
2019-01-31T13:41:26.689Z,8.70
2019-01-31T13:42:26.661Z,7.90
2019-01-31T13:43:26.673Z,8.60
2019-01-31T13:44:26.655Z,10.50
2019-01-31T13:45:26.630Z,8.40
2019-01-31T13:46:26.627Z,9.40
2019-01-31T13:47:26.614Z,9.90
2019-01-31T13:48:26.632Z,10.60
2019-01-31T13:49:26.591Z,11.80
2019-01-31T13:50:26.589Z,13.70